Datos actuales meteorológicos del Aeropuerto de Valencia      LEVC Valencia Airport



Temperatura
15°C Temperatura
11°C Punto de rocío
77% Humedad



Viento
14 KM/H
9 MPH
4 M/S
8 NUDO



90°
Este
Condiciones actuales

Nubes mayormente dispersas Nubes mayormente dispersas
Presión 1021.92 (hPa) - 30.18 (inHg)
Visibilidad 6.2 (milla) - 10 (km)
✈️ Manises
Código de aeropuerto LEVC

localidad: Valencia Airport
Distancia de Meteo Lliria: 18 (km)

Metar:
LEVC 061300Z 09008KT 9999 SCT020 SCT040 15/11 Q1022 NOSIG

Hora: 06-03-2021 14:00 CET

Follow @meteolliria2013